Time;durP1;ratioP1;P1;durP2;ratioP2;P2;SDS_P1;SDS_P2;PMS_P1;PMS_P2;Temp;Humidity;BMP_temperature;BMP_pressure;BME280_temperature;BME280_humidity;BME280_pressure;Samples;Min_cycle;Max_cycle;Signal;HPM_P1;HPM_P2
2022/12/14 00:00:04;;;;;;;;;;;;;;;;;;6264773;22;19951;-85
2022/12/14 00:02:30;;;;;;;;;;;;;;;;;;6259504;22;19923;-85
2022/12/14 00:04:56;;;;;;;;;;;;;;;;;;6260814;22;19919;-85
2022/12/14 00:07:22;;;;;;;;;;;;;;;;;;6260806;22;19926;-85
2022/12/14 00:09:48;;;;;;;;;;;;;;;;;;6260492;22;19926;-86
2022/12/14 00:12:14;;;;;;;;;;;;;;;;;;6235815;22;19919;-85
2022/12/14 00:14:40;;;;;;;;;;;;;;;;;;6232755;22;20008;-85
2022/12/14 00:17:06;;;;;;;;;;;;;;;;;;6260645;22;20014;-85
2022/12/14 00:19:32;;;;;;;;;;;;;;;;;;6238064;22;20576;-85
2022/12/14 00:21:58;;;;;;;;;;;;;;;;;;6232896;22;19926;-85
2022/12/14 00:24:24;;;;;;;;;;;;;;;;;;6237721;22;19942;-85
2022/12/14 00:26:50;;;;;;;;;;;;;;;;;;6259237;22;19969;-85
2022/12/14 00:29:16;;;;;;;;;;;;;;;;;;6237001;22;19924;-85
2022/12/14 00:31:42;;;;;;;;;;;;;;;;;;6232556;22;19931;-85
2022/12/14 00:34:08;;;;;;;;;;;;;;;;;;6236785;22;19935;-85
2022/12/14 00:36:36;;;;;;;;;;;;;;;;;;6260355;22;19969;-85
2022/12/14 00:39:02;;;;;;;;;;;;;;;;;;6260951;22;20029;-85
2022/12/14 00:41:28;;;;;;;;;;;;;;;;;;6260504;22;19957;-85
2022/12/14 00:43:54;;;;;;;;;;;;;;;;;;6256528;22;19934;-85
2022/12/14 00:46:20;;;;;;;;;;;;;;;;;;6263358;22;19924;-85
2022/12/14 00:48:46;;;;;;;;;;;;;;;;;;6234027;22;19998;-85
2022/12/14 00:51:13;;;;;;;;;;;;;;;;;;6238606;22;20308;-85
2022/12/14 00:53:39;;;;;;;;;;;;;;;;;;6234621;22;19919;-85
2022/12/14 00:56:05;;;;;;;;;;;;;;;;;;6238855;22;20300;-85
2022/12/14 00:58:31;;;;;;;;;;;;;;;;;;6263078;22;20252;-85
2022/12/14 01:00:57;;;;;;;;;;;;;;;;;;6259222;22;19926;-85
2022/12/14 01:03:23;;;;;;;;;;;;;;;;;;6261597;22;19926;-85
2022/12/14 01:05:49;;;;;;;;;;;;;;;;;;6259137;22;19919;-85
2022/12/14 01:08:15;;;;;;;;;;;;;;;;;;6236309;22;19919;-85
2022/12/14 01:10:41;;;;;;;;;;;;;;;;;;6232420;22;19919;-85
2022/12/14 01:13:07;;;;;;;;;;;;;;;;;;6235156;22;20026;-85
2022/12/14 01:15:33;;;;;;;;;;;;;;;;;;6259802;22;20328;-86
2022/12/14 01:17:59;;;;;;;;;;;;;;;;;;6256338;22;20326;-85
2022/12/14 01:20:25;;;;;;;;;;;;;;;;;;6236062;22;20469;-85
2022/12/14 01:22:50;;;;;;;;;;;;;;;;;;6259059;22;20410;-85
2022/12/14 01:25:16;;;;;;;;;;;;;;;;;;6236780;22;20299;-85
2022/12/14 01:27:42;;;;;;;;;;;;;;;;;;6234358;22;19949;-85
2022/12/14 01:30:08;;;;;;;;;;;;;;;;;;6238524;22;20596;-85
2022/12/14 01:32:37;;;;;;;;;;;;;;;;;;6236751;22;20349;-85
2022/12/14 01:35:03;;;;;;;;;;;;;;;;;;6237551;22;19919;-85
2022/12/14 01:37:29;;;;;;;;;;;;;;;;;;6263273;22;19919;-85
2022/12/14 01:39:55;;;;;;;;;;;;;;;;;;6258859;22;20414;-85
2022/12/14 01:42:21;;;;;;;;;;;;;;;;;;6262555;22;20012;-85
2022/12/14 01:44:47;;;;;;;;;;;;;;;;;;6261098;22;19926;-85
2022/12/14 01:47:13;;;;;;;;;;;;;;;;;;6262005;22;19923;-85
2022/12/14 01:49:39;;;;;;;;;;;;;;;;;;6235491;22;19919;-85
2022/12/14 01:52:05;;;;;;;;;;;;;;;;;;6263535;22;19942;-85
2022/12/14 01:54:31;;;;;;;;;;;;;;;;;;6265477;22;19941;-85
2022/12/14 01:56:57;;;;;;;;;;;;;;;;;;6260901;22;21215;-85
2022/12/14 01:59:23;;;;;;;;;;;;;;;;;;6264905;22;19920;-85
2022/12/14 02:01:49;;;;;;;;;;;;;;;;;;6259980;22;19996;-85
2022/12/14 02:04:15;;;;;;;;;;;;;;;;;;6263069;22;19919;-85
2022/12/14 02:06:41;;;;;;;;;;;;;;;;;;6235337;22;19923;-85
2022/12/14 02:09:07;;;;;;;;;;;;;;;;;;6263732;22;19919;-85
2022/12/14 02:11:33;;;;;;;;;;;;;;;;;;6264076;22;19923;-85
2022/12/14 02:13:59;;;;;;;;;;;;;;;;;;6234136;22;19919;-85
2022/12/14 02:16:25;;;;;;;;;;;;;;;;;;6237457;22;19927;-85
2022/12/14 02:18:51;;;;;;;;;;;;;;;;;;6259687;22;19990;-85
2022/12/14 02:21:17;;;;;;;;;;;;;;;;;;6260728;22;20347;-85
2022/12/14 02:23:43;;;;;;;;;;;;;;;;;;6234089;22;19919;-85
2022/12/14 02:26:09;;;;;;;;;;;;;;;;;;6236002;22;19919;-85
2022/12/14 02:28:38;;;;;;;;;;;;;;;;;;6233715;22;19925;-85
2022/12/14 02:31:04;;;;;;;;;;;;;;;;;;6261971;22;19929;-85
2022/12/14 02:33:29;;;;;;;;;;;;;;;;;;6236961;22;20390;-85
2022/12/14 02:35:55;;;;;;;;;;;;;;;;;;6232364;22;20914;-85
2022/12/14 02:38:21;;;;;;;;;;;;;;;;;;6261499;22;20259;-84
2022/12/14 02:40:47;;;;;;;;;;;;;;;;;;6230506;22;19969;-85
2022/12/14 02:43:13;;;;;;;;;;;;;;;;;;6235820;22;19972;-85
2022/12/14 02:45:39;;;;;;;;;;;;;;;;;;6258714;22;19995;-85
2022/12/14 02:48:05;;;;;;;;;;;;;;;;;;6260206;22;19919;-85
2022/12/14 02:50:31;;;;;;;;;;;;;;;;;;6234491;22;20005;-85
2022/12/14 02:52:57;;;;;;;;;;;;;;;;;;6257474;22;19927;-85
2022/12/14 02:55:23;;;;;;;;;;;;;;;;;;6259204;22;19919;-85
2022/12/14 02:57:49;;;;;;;;;;;;;;;;;;6256035;22;19971;-85
2022/12/14 03:00:15;;;;;;;;;;;;;;;;;;6263192;22;19915;-84
2022/12/14 03:02:41;;;;;;;;;;;;;;;;;;6235495;22;19919;-85
2022/12/14 03:05:07;;;;;;;;;;;;;;;;;;6238532;22;20353;-85
2022/12/14 03:07:33;;;;;;;;;;;;;;;;;;6237961;22;19970;-85
2022/12/14 03:09:58;;;;;;;;;;;;;;;;;;6262108;22;19923;-85
2022/12/14 03:12:24;;;;;;;;;;;;;;;;;;6264536;22;19994;-84
2022/12/14 03:14:50;;;;;;;;;;;;;;;;;;6262142;22;19919;-84
2022/12/14 03:17:16;;;;;;;;;;;;;;;;;;6263868;22;19919;-85
2022/12/14 03:19:42;;;;;;;;;;;;;;;;;;6259047;22;19923;-85
2022/12/14 03:22:08;;;;;;;;;;;;;;;;;;6264269;22;19926;-85
2022/12/14 03:24:37;;;;;;;;;;;;;;;;;;6235594;22;19927;-84
2022/12/14 03:27:03;;;;;;;;;;;;;;;;;;6235250;22;19919;-84
2022/12/14 03:29:29;;;;;;;;;;;;;;;;;;6265601;22;19919;-85
2022/12/14 03:31:55;;;;;;;;;;;;;;;;;;6263619;22;19957;-85
2022/12/14 03:34:21;;;;;;;;;;;;;;;;;;6243380;22;19921;-85
2022/12/14 03:36:47;;;;;;;;;;;;;;;;;;6264356;22;19946;-85
2022/12/14 03:39:13;;;;;;;;;;;;;;;;;;6241306;22;19919;-86
2022/12/14 03:41:39;;;;;;;;;;;;;;;;;;6290450;22;19919;-86
2022/12/14 03:44:05;;;;;;;;;;;;;;;;;;6265719;22;19941;-85
2022/12/14 03:46:31;;;;;;;;;;;;;;;;;;6266182;22;19918;-85
2022/12/14 03:48:57;;;;;;;;;;;;;;;;;;6238616;22;19918;-85
2022/12/14 03:51:23;;;;;;;;;;;;;;;;;;6267455;22;19915;-85
2022/12/14 03:53:49;;;;;;;;;;;;;;;;;;6237991;22;19996;-85
2022/12/14 03:56:15;;;;;;;;;;;;;;;;;;6243711;22;19914;-85
2022/12/14 03:58:41;;;;;;;;;;;;;;;;;;6241516;22;19919;-85
2022/12/14 04:01:06;;;;;;;;;;;;;;;;;;6269016;22;19994;-85
2022/12/14 04:03:32;;;;;;;;;;;;;;;;;;6269630;22;19918;-85
2022/12/14 04:05:58;;;;;;;;;;;;;;;;;;6242090;22;19919;-85
2022/12/14 04:08:24;;;;;;;;;;;;;;;;;;6267503;22;19946;-85
2022/12/14 04:19:04;;;;;;;;;;;;;;;;;;6269316;22;19950;-85
2022/12/14 04:21:30;;;;;;;;;;;;;;;;;;6267822;22;19984;-85
2022/12/14 04:26:41;;;;;;;;;;;;;;;;;;6266317;22;20323;-85
2022/12/14 04:31:52;;;;;;;;;;;;;;;;;;6263492;22;19965;-85
2022/12/14 04:34:18;;;;;;;;;;;;;;;;;;6268946;22;19915;-85
2022/12/14 04:36:44;;;;;;;;;;;;;;;;;;6242532;22;20002;-85
2022/12/14 04:39:10;;;;;;;;;;;;;;;;;;6242235;22;19923;-84
2022/12/14 04:41:36;;;;;;;;;;;;;;;;;;6269619;22;20044;-85
2022/12/14 04:44:02;;;;;;;;;;;;;;;;;;6267443;22;19926;-84
2022/12/14 04:46:28;;;;;;;;;;;;;;;;;;6242006;22;19919;-85
2022/12/14 04:48:54;;;;;;;;;;;;;;;;;;6265388;22;19915;-85
2022/12/14 04:51:20;;;;;;;;;;;;;;;;;;6243799;22;19997;-85
2022/12/14 04:53:46;;;;;;;;;;;;;;;;;;6239088;22;19967;-85
2022/12/14 04:56:12;;;;;;;;;;;;;;;;;;6269676;22;19919;-85
2022/12/14 04:58:38;;;;;;;;;;;;;;;;;;6239641;22;19989;-85
2022/12/14 05:01:04;;;;;;;;;;;;;;;;;;6266564;22;19919;-85
2022/12/14 05:03:30;;;;;;;;;;;;;;;;;;6239291;22;19925;-85
2022/12/14 05:05:56;;;;;;;;;;;;;;;;;;6263701;22;20261;-85
2022/12/14 05:08:21;;;;;;;;;;;;;;;;;;6267507;22;19941;-85
2022/12/14 05:10:47;;;;;;;;;;;;;;;;;;6264900;22;20025;-85
2022/12/14 05:13:13;;;;;;;;;;;;;;;;;;6238772;22;20287;-85
2022/12/14 05:15:39;;;;;;;;;;;;;;;;;;6261688;22;19998;-85
2022/12/14 05:18:05;;;;;;;;;;;;;;;;;;6267613;22;19923;-85
2022/12/14 05:20:31;;;;;;;;;;;;;;;;;;6266013;22;19921;-85
2022/12/14 05:22:57;;;;;;;;;;;;;;;;;;6261664;22;20095;-85
2022/12/14 05:25:23;;;;;;;;;;;;;;;;;;6239174;22;20311;-85
2022/12/14 05:27:49;;;;;;;;;;;;;;;;;;6262409;22;19923;-85
2022/12/14 05:30:15;;;;;;;;;;;;;;;;;;6240546;22;19958;-85
2022/12/14 05:32:41;;;;;;;;;;;;;;;;;;6260227;22;19919;-85
2022/12/14 05:35:07;;;;;;;;;;;;;;;;;;6239571;22;19925;-85
2022/12/14 05:37:33;;;;;;;;;;;;;;;;;;6292487;22;20298;-85
2022/12/14 05:39:59;;;;;;;;;;;;;;;;;;6266033;22;19923;-85
2022/12/14 05:42:25;;;;;;;;;;;;;;;;;;6267801;22;19926;-85
2022/12/14 05:44:51;;;;;;;;;;;;;;;;;;6267348;22;20293;-85
2022/12/14 05:47:17;;;;;;;;;;;;;;;;;;6242196;22;19925;-85
2022/12/14 05:49:43;;;;;;;;;;;;;;;;;;6264334;22;19980;-85
2022/12/14 05:52:09;;;;;;;;;;;;;;;;;;6241916;22;19969;-85
2022/12/14 05:54:38;;;;;;;;;;;;;;;;;;6268343;22;19919;-85
2022/12/14 05:57:05;;;;;;;;;;;;;;;;;;6267499;22;19987;-85
2022/12/14 05:59:31;;;;;;;;;;;;;;;;;;6294968;22;20284;-85
2022/12/14 06:01:57;;;;;;;;;;;;;;;;;;6264736;22;19958;-85
2022/12/14 06:04:23;;;;;;;;;;;;;;;;;;6268657;22;19919;-85
2022/12/14 06:06:49;;;;;;;;;;;;;;;;;;6238356;22;19976;-85
2022/12/14 06:09:15;;;;;;;;;;;;;;;;;;6242870;22;20335;-85
2022/12/14 06:11:41;;;;;;;;;;;;;;;;;;6239077;22;19954;-85
2022/12/14 06:14:07;;;;;;;;;;;;;;;;;;6240094;22;19983;-84
2022/12/14 06:16:33;;;;;;;;;;;;;;;;;;6268406;22;19919;-85
2022/12/14 06:18:59;;;;;;;;;;;;;;;;;;6268110;22;19922;-85
2022/12/14 06:21:25;;;;;;;;;;;;;;;;;;6267148;22;19945;-85
2022/12/14 06:23:51;;;;;;;;;;;;;;;;;;6238162;22;19919;-85
2022/12/14 06:26:17;;;;;;;;;;;;;;;;;;6241136;22;20468;-85
2022/12/14 06:28:43;;;;;;;;;;;;;;;;;;6237142;22;20389;-85
2022/12/14 06:31:09;;;;;;;;;;;;;;;;;;6265081;22;20226;-85
2022/12/14 06:33:35;;;;;;;;;;;;;;;;;;6264915;22;20672;-86
2022/12/14 06:36:01;;;;;;;;;;;;;;;;;;6266449;22;19919;-85
2022/12/14 06:38:27;;;;;;;;;;;;;;;;;;6292304;22;20065;-85
2022/12/14 06:40:53;;;;;;;;;;;;;;;;;;6263415;22;20439;-85
2022/12/14 06:43:19;;;;;;;;;;;;;;;;;;6242380;22;19915;-85
2022/12/14 06:45:45;;;;;;;;;;;;;;;;;;6234904;22;19957;-85
2022/12/14 06:48:11;;;;;;;;;;;;;;;;;;6267008;22;20433;-84
2022/12/14 06:50:37;;;;;;;;;;;;;;;;;;6261781;22;20850;-83
2022/12/14 06:53:03;;;;;;;;;;;;;;;;;;6239720;22;19918;-84
2022/12/14 06:55:29;;;;;;;;;;;;;;;;;;6266890;22;20332;-85
2022/12/14 06:57:55;;;;;;;;;;;;;;;;;;6239328;22;20543;-84
2022/12/14 07:00:21;;;;;;;;;;;;;;;;;;6266657;22;20746;-84
2022/12/14 07:02:47;;;;;;;;;;;;;;;;;;6238303;22;19926;-84
2022/12/14 07:05:13;;;;;;;;;;;;;;;;;;6240617;22;19915;-84
2022/12/14 07:07:39;;;;;;;;;;;;;;;;;;6264873;22;19919;-85
2022/12/14 07:10:05;;;;;;;;;;;;;;;;;;6267502;22;20325;-84
2022/12/14 07:12:31;;;;;;;;;;;;;;;;;;6270285;22;19919;-84
2022/12/14 07:14:58;;;;;;;;;;;;;;;;;;6264268;22;19969;-84
2022/12/14 07:17:24;;;;;;;;;;;;;;;;;;6244015;22;20248;-84
2022/12/14 07:19:50;;;;;;;;;;;;;;;;;;6264628;22;19979;-84
2022/12/14 07:22:17;;;;;;;;;;;;;;;;;;6267702;22;19972;-84
2022/12/14 07:24:43;;;;;;;;;;;;;;;;;;6266430;22;19919;-84
2022/12/14 07:27:09;;;;;;;;;;;;;;;;;;6267443;22;19919;-85
2022/12/14 07:29:35;;;;;;;;;;;;;;;;;;6229305;22;19919;-84
2022/12/14 07:32:01;;;;;;;;;;;;;;;;;;6214240;22;19992;-84
2022/12/14 07:34:27;;;;;;;;;;;;;;;;;;6240766;22;20363;-84
2022/12/14 07:36:53;;;;;;;;;;;;;;;;;;6236524;22;20565;-84
2022/12/14 07:39:20;;;;;;;;;;;;;;;;;;6239733;22;19937;-85
2022/12/14 07:41:46;;;;;;;;;;;;;;;;;;6211782;22;19994;-85
2022/12/14 07:44:12;;;;;;;;;;;;;;;;;;6241089;22;19954;-85
2022/12/14 07:46:38;;;;;;;;;;;;;;;;;;6214350;22;19919;-84
2022/12/14 07:49:04;;;;;;;;;;;;;;;;;;6217955;22;19947;-85
2022/12/14 07:51:30;;;;;;;;;;;;;;;;;;6217453;22;19926;-85
2022/12/14 07:53:56;;;;;;;;;;;;;;;;;;6267954;22;21064;-84
2022/12/14 07:56:23;;;;;;;;;;;;;;;;;;6270039;22;19927;-85
2022/12/14 07:58:49;;;;;;;;;;;;;;;;;;6267478;22;20487;-84
2022/12/14 08:01:15;;;;;;;;;;;;;;;;;;6269809;22;19919;-85
2022/12/14 08:03:41;;;;;;;;;;;;;;;;;;6239364;22;19925;-85
2022/12/14 08:06:07;;;;;;;;;;;;;;;;;;6217737;22;19965;-85
2022/12/14 08:08:33;;;;;;;;;;;;;;;;;;6218045;22;19926;-85
2022/12/14 08:10:59;;;;;;;;;;;;;;;;;;6267801;22;19986;-84
2022/12/14 08:13:25;;;;;;;;;;;;;;;;;;6243135;22;20256;-85
2022/12/14 08:15:51;;;;;;;;;;;;;;;;;;6239556;22;19951;-85
2022/12/14 08:18:17;;;;;;;;;;;;;;;;;;6217048;22;19915;-85
2022/12/14 08:20:43;;;;;;;;;;;;;;;;;;6214350;22;19926;-85
2022/12/14 08:23:09;;;;;;;;;;;;;;;;;;6242565;22;19927;-85
2022/12/14 08:25:38;;;;;;;;;;;;;;;;;;6239723;22;19968;-84
2022/12/14 08:28:04;;;;;;;;;;;;;;;;;;6214603;22;19920;-85
2022/12/14 08:30:30;;;;;;;;;;;;;;;;;;6242922;22;19988;-85
2022/12/14 08:32:55;;;;;;;;;;;;;;;;;;6265775;22;20507;-84
2022/12/14 08:35:21;;;;;;;;;;;;;;;;;;6241587;22;19915;-84
2022/12/14 08:37:47;;;;;;;;;;;;;;;;;;6266512;22;19919;-85
2022/12/14 08:40:13;;;;;;;;;;;;;;;;;;6242031;22;20346;-85
2022/12/14 08:42:39;;;;;;;;;;;;;;;;;;6264952;22;19929;-85
2022/12/14 08:45:06;;;;;;;;;;;;;;;;;;6241663;22;19919;-84
2022/12/14 08:47:32;;;;;;;;;;;;;;;;;;6241912;22;19918;-85
2022/12/14 08:49:58;;;;;;;;;;;;;;;;;;6240306;22;19929;-85
2022/12/14 08:52:24;;;;;;;;;;;;;;;;;;6243331;22;19926;-85
2022/12/14 08:54:50;;;;;;;;;;;;;;;;;;6242299;22;19923;-85
2022/12/14 08:57:16;;;;;;;;;;;;;;;;;;6244939;22;19919;-85
2022/12/14 08:59:43;;;;;;;;;;;;;;;;;;6242033;22;19988;-85
2022/12/14 09:02:09;;;;;;;;;;;;;;;;;;6244554;22;19930;-85
2022/12/14 09:04:35;;;;;;;;;;;;;;;;;;6245852;22;20298;-85
2022/12/14 09:07:01;;;;;;;;;;;;;;;;;;6242004;22;20379;-85
2022/12/14 09:09:27;;;;;;;;;;;;;;;;;;6242516;22;19923;-85
2022/12/14 09:11:53;;;;;;;;;;;;;;;;;;6294578;22;19985;-85
2022/12/14 09:14:20;;;;;;;;;;;;;;;;;;6269526;22;19954;-84
2022/12/14 09:16:46;;;;;;;;;;;;;;;;;;6292085;22;19918;-85
2022/12/14 09:19:12;;;;;;;;;;;;;;;;;;6268275;22;19921;-84
2022/12/14 09:21:39;;;;;;;;;;;;;;;;;;6289354;22;19954;-86
2022/12/14 09:24:05;;;;;;;;;;;;;;;;;;6263852;22;20324;-85
2022/12/14 09:26:32;;;;;;;;;;;;;;;;;;6238822;22;19964;-85
2022/12/14 09:28:58;;;;;;;;;;;;;;;;;;6285943;22;19969;-85
2022/12/14 09:31:24;;;;;;;;;;;;;;;;;;6236133;22;19923;-85
2022/12/14 09:33:50;;;;;;;;;;;;;;;;;;6259563;22;19945;-85
2022/12/14 09:36:16;;;;;;;;;;;;;;;;;;6237122;22;19919;-86
2022/12/14 09:38:42;;;;;;;;;;;;;;;;;;6231750;22;19990;-85
2022/12/14 09:41:08;;;;;;;;;;;;;;;;;;6261955;22;20026;-84
2022/12/14 09:43:34;;;;;;;;;;;;;;;;;;6237159;22;20340;-84
2022/12/14 09:46:00;;;;;;;;;;;;;;;;;;6260088;22;20359;-85
2022/12/14 09:48:26;;;;;;;;;;;;;;;;;;6238990;22;19919;-84
2022/12/14 09:50:52;;;;;;;;;;;;;;;;;;6235015;22;19981;-85
2022/12/14 09:53:18;;;;;;;;;;;;;;;;;;6264609;22;19919;-85
2022/12/14 09:55:44;;;;;;;;;;;;;;;;;;6259537;22;19926;-85
2022/12/14 09:58:10;;;;;;;;;;;;;;;;;;6263844;22;19923;-85
2022/12/14 10:00:36;;;;;;;;;;;;;;;;;;6264595;22;20010;-86
2022/12/14 10:03:02;;;;;;;;;;;;;;;;;;6236222;22;19919;-85
2022/12/14 10:05:27;;;;;;;;;;;;;;;;;;6262375;22;20256;-85
2022/12/14 10:07:53;;;;;;;;;;;;;;;;;;6234223;22;19916;-85
2022/12/14 10:10:19;;;;;;;;;;;;;;;;;;6262455;22;19924;-86
2022/12/14 10:12:45;;;;;;;;;;;;;;;;;;6260223;22;19950;-86
2022/12/14 10:15:12;;;;;;;;;;;;;;;;;;6264065;22;19919;-85
2022/12/14 10:17:38;;;;;;;;;;;;;;;;;;6232078;22;19919;-86
2022/12/14 10:20:04;;;;;;;;;;;;;;;;;;6238323;22;20251;-86
2022/12/14 10:22:30;;;;;;;;;;;;;;;;;;6261415;22;20321;-86
2022/12/14 10:24:56;;;;;;;;;;;;;;;;;;6257333;22;20504;-86
2022/12/14 10:27:22;;;;;;;;;;;;;;;;;;6238902;22;19920;-85
2022/12/14 10:29:48;;;;;;;;;;;;;;;;;;6263568;22;19922;-86
2022/12/14 10:32:14;;;;;;;;;;;;;;;;;;6295309;22;19994;-86
2022/12/14 10:34:40;;;;;;;;;;;;;;;;;;6239001;22;19927;-86
2022/12/14 10:37:06;;;;;;;;;;;;;;;;;;6294886;22;19918;-86
2022/12/14 10:39:32;;;;;;;;;;;;;;;;;;6295367;22;20041;-86
2022/12/14 10:41:58;;;;;;;;;;;;;;;;;;6264479;22;19919;-86
2022/12/14 10:44:24;;;;;;;;;;;;;;;;;;6296624;22;19985;-86
2022/12/14 10:46:50;;;;;;;;;;;;;;;;;;6238195;22;19950;-86
2022/12/14 10:49:16;;;;;;;;;;;;;;;;;;6268943;22;19921;-86
2022/12/14 10:51:42;;;;;;;;;;;;;;;;;;6238067;22;20240;-85
2022/12/14 10:54:08;;;;;;;;;;;;;;;;;;6243798;22;20386;-85
2022/12/14 10:56:34;;;;;;;;;;;;;;;;;;6241027;22;19919;-85
2022/12/14 10:59:00;;;;;;;;;;;;;;;;;;6263175;22;19998;-85
2022/12/14 11:01:26;;;;;;;;;;;;;;;;;;6267979;22;20363;-85
2022/12/14 11:03:52;;;;;;;;;;;;;;;;;;6261520;22;19926;-85
2022/12/14 11:06:18;;;;;;;;;;;;;;;;;;6240461;22;20244;-85
2022/12/14 11:08:44;;;;;;;;;;;;;;;;;;6261878;22;19918;-86
2022/12/14 11:11:10;;;;;;;;;;;;;;;;;;6240399;22;20354;-85
2022/12/14 11:13:36;;;;;;;;;;;;;;;;;;6241447;22;19989;-85
2022/12/14 11:16:02;;;;;;;;;;;;;;;;;;6267319;22;19986;-85
2022/12/14 11:18:28;;;;;;;;;;;;;;;;;;6267400;22;19954;-85
2022/12/14 11:20:54;;;;;;;;;;;;;;;;;;6265909;22;19985;-85
2022/12/14 11:23:20;;;;;;;;;;;;;;;;;;6267723;22;19929;-85
2022/12/14 11:25:46;;;;;;;;;;;;;;;;;;6239924;22;20411;-85
2022/12/14 11:28:12;;;;;;;;;;;;;;;;;;6245020;22;19918;-85
2022/12/14 11:30:38;;;;;;;;;;;;;;;;;;6227951;22;19923;-86
2022/12/14 11:33:04;;;;;;;;;;;;;;;;;;6246224;22;19993;-86
2022/12/14 11:35:30;;;;;;;;;;;;;;;;;;6269235;22;19926;-86
2022/12/14 11:37:56;;;;;;;;;;;;;;;;;;6264531;22;20493;-86
2022/12/14 11:40:22;;;;;;;;;;;;;;;;;;6242497;22;19921;-86
2022/12/14 11:42:48;;;;;;;;;;;;;;;;;;6241745;22;19919;-86
2022/12/14 11:45:14;;;;;;;;;;;;;;;;;;6294878;22;19922;-87
2022/12/14 11:47:40;;;;;;;;;;;;;;;;;;6267668;22;19926;-87
2022/12/14 11:50:06;;;;;;;;;;;;;;;;;;6243141;22;20248;-86
2022/12/14 11:52:32;;;;;;;;;;;;;;;;;;6240614;22;20431;-87
2022/12/14 11:54:58;;;;;;;;;;;;;;;;;;6240429;22;19922;-87
2022/12/14 11:57:24;;;;;;;;;;;;;;;;;;6241415;22;19915;-87
2022/12/14 11:59:51;;;;;;;;;;;;;;;;;;6238912;22;20408;-87
2022/12/14 12:02:17;;;;;;;;;;;;;;;;;;6292548;22;20543;-87
2022/12/14 12:04:43;;;;;;;;;;;;;;;;;;6263623;22;19919;-87
2022/12/14 12:07:11;;;;;;;;;;;;;;;;;;6294178;22;19927;-86
2022/12/14 12:09:37;;;;;;;;;;;;;;;;;;6293421;22;20373;-87
2022/12/14 12:12:03;;;;;;;;;;;;;;;;;;6264716;22;20029;-87
2022/12/14 12:14:29;;;;;;;;;;;;;;;;;;6241806;22;19919;-87
2022/12/14 12:16:56;;;;;;;;;;;;;;;;;;6240513;22;19996;-86
2022/12/14 12:19:22;;;;;;;;;;;;;;;;;;6240941;22;19915;-87
2022/12/14 12:21:49;;;;;;;;;;;;;;;;;;6241490;22;19925;-86
2022/12/14 12:24:15;;;;;;;;;;;;;;;;;;6244862;22;19947;-87
2022/12/14 12:26:43;;;;;;;;;;;;;;;;;;6242289;22;19922;-87
2022/12/14 12:29:08;;;;;;;;;;;;;;;;;;6297425;22;19919;-86
2022/12/14 12:31:34;;;;;;;;;;;;;;;;;;6264144;22;19924;-86
2022/12/14 12:34:00;;;;;;;;;;;;;;;;;;6235079;22;19988;-86
2022/12/14 12:36:27;;;;;;;;;;;;;;;;;;6261761;22;20439;-86
2022/12/14 12:38:52;;;;;;;;;;;;;;;;;;6260665;22;19919;-86
2022/12/14 12:41:19;;;;;;;;;;;;;;;;;;6262512;22;20240;-86
2022/12/14 12:43:45;;;;;;;;;;;;;;;;;;6257935;22;19954;-86
2022/12/14 12:46:12;;;;;;;;;;;;;;;;;;6233472;22;20252;-86
2022/12/14 12:48:38;;;;;;;;;;;;;;;;;;6258240;22;19916;-86
2022/12/14 12:51:04;;;;;;;;;;;;;;;;;;6263937;22;19931;-86
2022/12/14 12:53:30;;;;;;;;;;;;;;;;;;6267289;22;19919;-87
2022/12/14 12:55:56;;;;;;;;;;;;;;;;;;6257878;22;20369;-86
2022/12/14 12:58:22;;;;;;;;;;;;;;;;;;6262798;22;20329;-87
2022/12/14 13:00:50;;;;;;;;;;;;;;;;;;6258814;22;20382;-86
2022/12/14 13:03:16;;;;;;;;;;;;;;;;;;6262452;22;20298;-87
2022/12/14 13:05:42;;;;;;;;;;;;;;;;;;6234854;22;19915;-87
2022/12/14 13:08:08;;;;;;;;;;;;;;;;;;6263568;22;19919;-86
2022/12/14 13:10:34;;;;;;;;;;;;;;;;;;6263053;22;19919;-86
2022/12/14 13:13:00;;;;;;;;;;;;;;;;;;6259642;22;20001;-87
2022/12/14 13:15:26;;;;;;;;;;;;;;;;;;6261126;22;19920;-86
2022/12/14 13:17:52;;;;;;;;;;;;;;;;;;6233506;22;19919;-86
2022/12/14 13:20:18;;;;;;;;;;;;;;;;;;6238074;22;19915;-86
2022/12/14 13:22:43;;;;;;;;;;;;;;;;;;6261225;22;20387;-87
2022/12/14 13:25:09;;;;;;;;;;;;;;;;;;6261748;22;19955;-86
2022/12/14 13:27:35;;;;;;;;;;;;;;;;;;6234814;22;19919;-86
2022/12/14 13:30:02;;;;;;;;;;;;;;;;;;6260310;22;19982;-87
2022/12/14 13:32:28;;;;;;;;;;;;;;;;;;6261665;22;19922;-86
2022/12/14 13:34:54;;;;;;;;;;;;;;;;;;6232302;22;20047;-86
2022/12/14 13:37:20;;;;;;;;;;;;;;;;;;6260124;22;19923;-86
2022/12/14 13:39:46;;;;;;;;;;;;;;;;;;6232465;22;19916;-86
2022/12/14 13:42:12;;;;;;;;;;;;;;;;;;6261527;22;19919;-86
2022/12/14 13:44:38;;;;;;;;;;;;;;;;;;6258426;22;19919;-86
2022/12/14 13:47:04;;;;;;;;;;;;;;;;;;6260239;22;19919;-86
2022/12/14 13:49:30;;;;;;;;;;;;;;;;;;6236487;22;19923;-86
2022/12/14 13:51:56;;;;;;;;;;;;;;;;;;6232512;22;19923;-86
2022/12/14 13:54:22;;;;;;;;;;;;;;;;;;6237160;22;19961;-86
2022/12/14 13:56:48;;;;;;;;;;;;;;;;;;6232856;22;20354;-86
2022/12/14 13:59:14;;;;;;;;;;;;;;;;;;6262344;22;19987;-86
2022/12/14 14:01:40;;;;;;;;;;;;;;;;;;6256965;22;19930;-86
2022/12/14 14:04:06;;;;;;;;;;;;;;;;;;6237321;22;19916;-86
2022/12/14 14:06:33;;;;;;;;;;;;;;;;;;6235054;22;19919;-86
2022/12/14 14:09:02;;;;;;;;;;;;;;;;;;6233447;22;20279;-86
2022/12/14 14:11:28;;;;;;;;;;;;;;;;;;6236126;22;20240;-86
2022/12/14 14:13:54;;;;;;;;;;;;;;;;;;6260736;22;19990;-86
2022/12/14 14:16:20;;;;;;;;;;;;;;;;;;6234530;22;19923;-86
2022/12/14 14:18:46;;;;;;;;;;;;;;;;;;6254698;22;19920;-86
2022/12/14 14:21:12;;;;;;;;;;;;;;;;;;6255828;22;19915;-86
2022/12/14 14:23:39;;;;;;;;;;;;;;;;;;6231660;22;19968;-86
2022/12/14 14:26:05;;;;;;;;;;;;;;;;;;6233735;22;19919;-86
2022/12/14 14:28:31;;;;;;;;;;;;;;;;;;6232706;22;20017;-86
2022/12/14 14:30:57;;;;;;;;;;;;;;;;;;6256329;22;19930;-86
2022/12/14 14:33:23;;;;;;;;;;;;;;;;;;6260634;22;19946;-86
2022/12/14 14:35:49;;;;;;;;;;;;;;;;;;6253842;22;19919;-86
2022/12/14 14:38:15;;;;;;;;;;;;;;;;;;6232676;22;19919;-86
2022/12/14 14:40:42;;;;;;;;;;;;;;;;;;6260573;22;20414;-86
2022/12/14 14:43:08;;;;;;;;;;;;;;;;;;6262326;22;20661;-86
2022/12/14 14:45:34;;;;;;;;;;;;;;;;;;6259999;22;19954;-86
2022/12/14 14:48:01;;;;;;;;;;;;;;;;;;6256639;22;19919;-86
2022/12/14 14:50:27;;;;;;;;;;;;;;;;;;6261458;22;20253;-86
2022/12/14 14:52:53;;;;;;;;;;;;;;;;;;6260183;22;19919;-86
2022/12/14 14:55:19;;;;;;;;;;;;;;;;;;6264809;22;19982;-86
2022/12/14 14:57:45;;;;;;;;;;;;;;;;;;6263216;22;19959;-86
2022/12/14 15:00:11;;;;;;;;;;;;;;;;;;6265645;22;19930;-86
2022/12/14 15:02:37;;;;;;;;;;;;;;;;;;6265422;22;20601;-86
2022/12/14 15:05:03;;;;;;;;;;;;;;;;;;6264752;22;19919;-86
2022/12/14 15:07:29;;;;;;;;;;;;;;;;;;6262121;22;20351;-86
2022/12/14 15:09:56;;;;;;;;;;;;;;;;;;6262645;22;19919;-86
2022/12/14 15:12:22;;;;;;;;;;;;;;;;;;6264983;22;19916;-86
2022/12/14 15:14:48;;;;;;;;;;;;;;;;;;6260468;22;19915;-86
2022/12/14 15:17:14;;;;;;;;;;;;;;;;;;6260320;22;20018;-86
2022/12/14 15:19:40;;;;;;;;;;;;;;;;;;6254592;22;19919;-87
2022/12/14 15:22:06;;;;;;;;;;;;;;;;;;6258354;22;20682;-87
2022/12/14 15:24:32;;;;;;;;;;;;;;;;;;6262075;22;19919;-87
2022/12/14 15:26:59;;;;;;;;;;;;;;;;;;6256110;22;19919;-86
2022/12/14 15:29:25;;;;;;;;;;;;;;;;;;6255529;22;20404;-87
2022/12/14 15:31:51;;;;;;;;;;;;;;;;;;6228653;22;19923;-87
2022/12/14 15:34:17;;;;;;;;;;;;;;;;;;6257464;22;19919;-86
2022/12/14 15:36:43;;;;;;;;;;;;;;;;;;6254282;22;19951;-86
2022/12/14 15:39:09;;;;;;;;;;;;;;;;;;6258413;22;19919;-86
2022/12/14 15:41:35;;;;;;;;;;;;;;;;;;6258576;22;19915;-86
2022/12/14 15:44:01;;;;;;;;;;;;;;;;;;6231829;22;19919;-86
2022/12/14 15:46:27;;;;;;;;;;;;;;;;;;6231851;22;20256;-85
2022/12/14 15:48:53;;;;;;;;;;;;;;;;;;6228419;22;19920;-86
2022/12/14 15:51:19;;;;;;;;;;;;;;;;;;6257489;22;19969;-86
2022/12/14 15:53:44;;;;;;;;;;;;;;;;;;6249469;22;19919;-85
2022/12/14 15:56:10;;;;;;;;;;;;;;;;;;6229761;22;19927;-86
2022/12/14 15:58:37;;;;;;;;;;;;;;;;;;6232848;22;19919;-85
2022/12/14 16:03:54;;;;;;;;;;;;;;;;;;6225356;23;19927;-86
2022/12/14 16:06:23;;;;;;;;;;;;;;;;;;6200989;23;20084;-86
2022/12/14 16:09:23;;;;;;;;;;;;;;;;;;;;;
2022/12/14 16:12:15;;;;;;;;;;;;;;;;;;6237420;23;19973;-86
2022/12/14 16:17:48;;;;;;;;;;;;;;;;;;6218601;23;19919;-86
2022/12/14 16:20:28;;;;;;;;;;;;;;;;;;6203121;23;20001;-86
2022/12/14 16:26:18;;;;;;;;;;;;;;;;;;6227649;23;20042;-86
2022/12/14 16:29:16;;;;;;;;;;;;;;;;;;6190348;23;19977;-87
2022/12/14 16:32:19;;;;;;;;;;;;;;;;;;;;;
2022/12/14 16:35:07;;;;;;;;;;;;;;;;;;6154305;23;19978;-86
2022/12/14 16:37:54;;;;;;;;;;;;;;;;;;;;;
2022/12/14 16:40:34;;;;;;;;;;;;;;;;;;6170628;23;19966;-86
2022/12/14 16:43:03;;;;;;;;;;;;;;;;;;6168269;23;20297;-86
2022/12/14 16:51:42;;;;;;;;;;;;;;;;;;6170357;23;19923;-86
2022/12/14 16:54:10;;;;;;;;;;;;;;;;;;6171651;23;20358;-86
2022/12/14 16:56:55;;;;;;;;;;;;;;;;;;6170539;23;19959;-87
2022/12/14 16:59:44;;;;;;;;;;;;;;;;;;6147710;23;19999;-86
2022/12/14 17:02:18;;;;;;;;;;;;;;;;;;6106758;23;19925;-87
2022/12/14 17:05:15;;;;;;;;;;;;;;;;;;6020271;23;20413;-86
2022/12/14 17:07:41;;;;;;;;;;;;;;;;;;6052615;23;20393;-86
2022/12/14 17:10:32;;;;;;;;;;;;;;;;;;;;;
2022/12/14 17:13:00;;;;;;;;;;;;;;;;;;6055530;23;20015;-86